Time;durP1;ratioP1;P1;durP2;ratioP2;P2;SDS_P1;SDS_P2;PMS_P1;PMS_P2;Temp;Humidity;BMP_temperature;BMP_pressure;BME280_temperature;BME280_humidity;BME280_pressure;Samples;Min_cycle;Max_cycle;Signal;HPM_P1;HPM_P2
2023/08/29 00:09:18;;;;;;;17.85;15.43;;;23.80;34.80;;;;;;21007962;28;20055;-58
2023/08/29 00:19:21;;;;;;;2.38;1.73;;;23.60;35.30;;;;;;21007047;28;20058;-58
2023/08/29 00:29:22;;;;;;;2.60;1.38;;;23.60;35.80;;;;;;21006055;28;20049;-57
2023/08/29 00:39:24;;;;;;;4.05;1.15;;;23.40;36.60;;;;;;21005300;28;20053;-58
2023/08/29 00:49:27;;;;;;;1.92;1.10;;;23.40;38.20;;;;;;21004500;28;20044;-57
2023/08/29 00:59:28;;;;;;;2.10;1.10;;;23.30;38.80;;;;;;21003888;28;20044;-58
2023/08/29 01:09:29;;;;;;;1.35;0.73;;;23.20;40.00;;;;;;21001740;28;20040;-57
2023/08/29 01:19:31;;;;;;;1.05;0.65;;;23.10;41.00;;;;;;21002375;28;20056;-58
2023/08/29 01:29:34;;;;;;;1.50;0.82;;;23.00;41.00;;;;;;21000686;28;20052;-57
2023/08/29 01:39:34;;;;;;;2.10;0.80;;;23.00;40.70;;;;;;20998983;28;20131;-57
2023/08/29 01:49:36;;;;;;;0.90;0.60;;;23.10;39.90;;;;;;21000039;28;20485;-56
2023/08/29 01:59:37;;;;;;;1.95;0.70;;;22.80;39.90;;;;;;20998203;28;20052;-57
2023/08/29 02:09:38;;;;;;;1.10;0.70;;;22.70;39.90;;;;;;20998408;28;20044;-57
2023/08/29 02:19:39;;;;;;;1.77;0.90;;;22.70;40.20;;;;;;20996173;28;20037;-56
2023/08/29 02:29:39;;;;;;;1.20;0.75;;;22.60;41.10;;;;;;20995821;28;20106;-57
2023/08/29 02:39:41;;;;;;;1.08;0.70;;;22.40;41.80;;;;;;20997234;28;20559;-56
2023/08/29 02:49:42;;;;;;;1.90;0.90;;;22.30;42.70;;;;;;20995045;28;20070;-57
2023/08/29 02:59:43;;;;;;;1.52;0.80;;;22.10;42.70;;;;;;20995762;28;20383;-56
2023/08/29 03:09:43;;;;;;;2.70;0.70;;;22.10;42.40;;;;;;20995159;28;20086;-58
2023/08/29 03:19:46;;;;;;;1.67;0.90;;;22.10;42.30;;;;;;20993339;28;20040;-57
2023/08/29 03:29:50;;;;;;;;;;;22.10;42.30;;;;;;21005750;28;20144;-57
2023/08/29 03:39:50;;;;;;;2.35;1.30;;;22.00;42.20;;;;;;21010225;28;19995;-57
2023/08/29 03:49:51;;;;;;;1.50;0.80;;;22.20;42.50;;;;;;21009418;28;20071;-56
2023/08/29 03:59:52;;;;;;;1.75;0.80;;;22.20;42.50;;;;;;21008637;28;20087;-57
2023/08/29 04:09:52;;;;;;;1.55;1.00;;;22.10;41.90;;;;;;21007182;28;20080;-57
2023/08/29 04:19:53;;;;;;;1.50;0.80;;;22.00;42.00;;;;;;21007364;28;20080;-58
2023/08/29 04:29:54;;;;;;;1.42;0.80;;;21.90;42.00;;;;;;21004939;28;20132;-57
2023/08/29 04:39:55;;;;;;;2.45;0.82;;;21.80;42.00;;;;;;21004494;28;20136;-57
2023/08/29 04:49:55;;;;;;;1.42;0.75;;;21.70;42.30;;;;;;21004875;28;20496;-58
2023/08/29 04:59:56;;;;;;;1.95;0.77;;;21.50;42.90;;;;;;21004275;28;20045;-57
2023/08/29 05:09:57;;;;;;;1.92;0.93;;;21.50;43.00;;;;;;21003476;28;20051;-58
2023/08/29 05:19:58;;;;;;;1.45;0.85;;;21.40;43.40;;;;;;21002613;28;20036;-57
2023/08/29 05:29:58;;;;;;;2.05;1.17;;;21.40;44.10;;;;;;21001033;28;20079;-57
2023/08/29 05:39:59;;;;;;;1.40;0.90;;;21.30;44.60;;;;;;21000633;28;20105;-56
2023/08/29 05:50:00;;;;;;;2.33;1.10;;;21.20;44.90;;;;;;20998512;28;20041;-58
2023/08/29 06:00:04;;;;;;;5.40;1.25;;;21.20;44.90;;;;;;20999557;28;20114;-58
2023/08/29 06:10:08;;;;;;;4.10;2.95;;;21.20;45.10;;;;;;20998473;28;20098;-58
2023/08/29 06:20:11;;;;;;;3.13;1.00;;;21.30;44.90;;;;;;20997222;28;20040;-57
2023/08/29 06:30:14;;;;;;;4.40;1.37;;;21.30;44.60;;;;;;20996612;28;20071;-58
2023/08/29 06:40:15;;;;;;;8.68;6.38;;;21.40;44.60;;;;;;20995983;28;20063;-57
2023/08/29 06:50:16;;;;;;;11.45;1.70;;;21.30;45.00;;;;;;20996335;28;20041;-57
2023/08/29 07:00:19;;;;;;;3.15;1.30;;;21.30;45.20;;;;;;21004609;28;20109;-57
2023/08/29 07:10:20;;;;;;;7.65;1.80;;;21.50;45.00;;;;;;21023060;28;20047;-57
2023/08/29 07:20:21;;;;;;;4.15;1.50;;;21.80;44.10;;;;;;21023076;28;20324;-58
2023/08/29 07:30:22;;;;;;;7.25;1.20;;;22.10;43.30;;;;;;21021667;28;20058;-60
2023/08/29 07:40:22;;;;;;;3.40;1.35;;;22.40;42.90;;;;;;21022467;28;20041;-57
2023/08/29 07:50:23;;;;;;;3.60;1.13;;;22.60;42.50;;;;;;21021632;28;20375;-57
2023/08/29 08:00:24;;;;;;;3.30;1.73;;;22.80;42.10;;;;;;21020817;28;20094;-58
2023/08/29 08:10:25;;;;;;;4.10;1.08;;;22.90;44.20;;;;;;21018529;28;20087;-58
2023/08/29 08:20:26;;;;;;;3.42;1.00;;;23.10;42.80;;;;;;21007064;28;20397;-57
2023/08/29 08:30:27;;;;;;;3.10;0.90;;;23.20;42.10;;;;;;21005111;28;20064;-57
2023/08/29 08:40:28;;;;;;;3.50;1.33;;;23.30;42.30;;;;;;21005469;28;20618;-58
2023/08/29 08:50:30;;;;;;;4.80;1.30;;;23.50;41.90;;;;;;21004983;28;20048;-57
2023/08/29 09:00:31;;;;;;;2.33;1.00;;;23.90;41.30;;;;;;21002436;28;20051;-56
2023/08/29 09:10:33;;;;;;;5.88;1.10;;;24.10;39.20;;;;;;21002876;28;20080;-58
2023/08/29 09:20:34;;;;;;;1.92;1.02;;;24.20;38.30;;;;;;21002280;28;20454;-57
2023/08/29 09:30:41;;;;;;;3.33;1.30;;;24.10;38.40;;;;;;21001143;28;20150;-58
2023/08/29 09:41:00;;;;;;;2.92;1.58;;;24.40;38.00;;;;;;21000459;28;20490;-57
2023/08/29 09:51:03;;;;;;;3.13;1.30;;;24.40;37.70;;;;;;20999698;28;20044;-59
2023/08/29 10:01:07;;;;;;;3.92;1.40;;;24.60;37.40;;;;;;20999467;28;20044;-60
2023/08/29 10:11:08;;;;;;;6.15;1.20;;;24.60;37.20;;;;;;20998718;28;20040;-58
2023/08/29 10:21:11;;;;;;;6.72;1.60;;;24.50;37.90;;;;;;20996944;28;20098;-57
2023/08/29 10:31:12;;;;;;;2.38;1.23;;;24.70;37.70;;;;;;20995333;28;20048;-58
2023/08/29 10:41:13;;;;;;;5.23;1.10;;;25.10;36.70;;;;;;20994318;28;20048;-57
2023/08/29 10:51:16;;;;;;;3.80;1.65;;;25.10;36.90;;;;;;20996029;28;20040;-57
2023/08/29 11:01:28;;;;;;;6.13;1.40;;;25.30;36.70;;;;;;20995204;28;20518;-58
2023/08/29 11:11:29;;;;;;;4.13;1.33;;;25.50;36.40;;;;;;20994335;28;20043;-58
2023/08/29 11:21:31;;;;;;;1.33;0.80;;;25.40;36.70;;;;;;20994736;28;20044;-59
2023/08/29 11:31:37;;;;;;;1.75;0.90;;;25.20;36.70;;;;;;20994030;28;20047;-58
2023/08/29 11:41:38;;;;;;;5.10;1.05;;;25.40;36.70;;;;;;20993212;28;20049;-59
2023/08/29 11:51:39;;;;;;;3.17;1.10;;;25.80;35.80;;;;;;21005605;28;20087;-58
2023/08/29 12:01:40;;;;;;;3.20;1.60;;;26.00;35.30;;;;;;21008253;28;20048;-58
2023/08/29 12:11:41;;;;;;;1.63;0.90;;;26.20;35.10;;;;;;21007069;28;20076;-58
2023/08/29 12:21:51;;;;;;;;;;;26.60;34.60;;;;;;21005349;28;20044;-57
2023/08/29 12:31:53;;;;;;;2.08;1.20;;;26.70;34.10;;;;;;21004256;28;19928;-56
2023/08/29 12:41:53;;;;;;;2.50;0.93;;;27.00;33.90;;;;;;21005061;28;20106;-58
2023/08/29 12:51:54;;;;;;;2.37;1.07;;;26.80;33.30;;;;;;21002907;28;20293;-57
2023/08/29 13:01:55;;;;;;;4.40;1.60;;;26.80;33.30;;;;;;21001333;28;20066;-58
2023/08/29 13:11:55;;;;;;;2.70;1.00;;;26.90;33.50;;;;;;21002818;28;20106;-57
2023/08/29 13:21:56;;;;;;;11.80;9.47;;;27.10;32.60;;;;;;21001784;28;20466;-58
2023/08/29 13:31:57;;;;;;;9.23;7.47;;;27.10;32.40;;;;;;21000542;28;20052;-57
2023/08/29 13:41:58;;;;;;;3.53;1.10;;;27.20;32.40;;;;;;20999076;28;20044;-57
2023/08/29 13:51:59;;;;;;;2.67;1.10;;;27.40;31.60;;;;;;20999106;28;20151;-57
2023/08/29 14:02:01;;;;;;;2.90;1.20;;;27.40;31.60;;;;;;20998678;28;20043;-57
2023/08/29 14:12:02;;;;;;;7.32;4.05;;;27.50;31.40;;;;;;20996953;28;20376;-59
2023/08/29 14:22:03;;;;;;;2.33;1.58;;;27.60;31.10;;;;;;20997573;28;20090;-58
2023/08/29 14:32:05;;;;;;;2.60;1.00;;;27.80;30.90;;;;;;20995461;28;20048;-57
2023/08/29 14:42:06;;;;;;;2.20;1.15;;;27.80;30.50;;;;;;20996061;28;20781;-57
2023/08/29 14:52:06;;;;;;;2.07;1.30;;;28.00;30.70;;;;;;20996144;28;20401;-58
2023/08/29 15:02:07;;;;;;;2.37;1.30;;;27.80;30.80;;;;;;20994996;28;20049;-58
2023/08/29 15:12:08;;;;;;;3.30;1.17;;;27.90;30.40;;;;;;20993443;28;20040;-57
2023/08/29 15:22:09;;;;;;;;;;;27.90;30.70;;;;;;21000649;28;20519;-58
2023/08/29 15:32:10;;;;;;;2.75;1.10;;;28.20;30.20;;;;;;21009328;28;19975;-57
2023/08/29 15:42:11;;;;;;;3.50;1.48;;;28.20;29.80;;;;;;21008434;28;20181;-57
2023/08/29 15:52:11;;;;;;;2.63;1.13;;;28.30;29.70;;;;;;21008926;28;20494;-58
2023/08/29 16:02:12;;;;;;;2.10;1.03;;;28.30;29.60;;;;;;21008178;28;20508;-57
2023/08/29 16:12:13;;;;;;;1.80;0.90;;;28.20;29.50;;;;;;21007113;28;20132;-62
2023/08/29 16:22:14;;;;;;;6.00;1.97;;;28.00;30.10;;;;;;20964395;28;20155;-58
2023/08/29 16:32:14;;;;;;;2.83;1.20;;;27.80;29.70;;;;;;20921468;28;20076;-58
2023/08/29 16:42:15;;;;;;;1.57;0.90;;;27.70;29.70;;;;;;20922372;28;20072;-59
2023/08/29 16:52:16;;;;;;;2.27;0.80;;;27.60;29.80;;;;;;20921125;28;20132;-58
2023/08/29 17:02:17;;;;;;;2.30;1.00;;;27.50;29.70;;;;;;20919955;28;20513;-59
2023/08/29 17:12:22;;;;;;;1.80;0.90;;;27.30;29.90;;;;;;20920529;28;20486;-57
2023/08/29 17:22:24;;;;;;;2.75;0.90;;;27.20;29.80;;;;;;20918668;28;20098;-57
2023/08/29 17:32:24;;;;;;;1.67;0.80;;;27.00;30.20;;;;;;20917675;28;20048;-57
2023/08/29 17:42:25;;;;;;;2.33;1.20;;;26.90;30.40;;;;;;20918082;28;20052;-59
2023/08/29 17:52:26;;;;;;;3.47;0.90;;;26.90;30.70;;;;;;20916002;28;20087;-58
2023/08/29 18:02:26;;;;;;;1.87;1.00;;;26.60;31.00;;;;;;20916474;28;20116;-58
2023/08/29 18:12:28;;;;;;;5.10;1.57;;;26.30;31.40;;;;;;20915503;28;20088;-57
2023/08/29 18:22:29;;;;;;;4.35;1.27;;;26.20;31.60;;;;;;20913316;28;20095;-58
2023/08/29 18:32:31;;;;;;;1.80;1.03;;;26.10;32.10;;;;;;20913277;28;20129;-58
2023/08/29 18:42:32;;;;;;;5.82;1.20;;;26.00;32.20;;;;;;20913422;28;20123;-58
2023/08/29 18:52:34;;;;;;;3.88;1.23;;;25.90;32.30;;;;;;20911874;28;20055;-57
2023/08/29 19:02:34;;;;;;;2.80;1.50;;;25.70;32.40;;;;;;20912236;28;20049;-60
2023/08/29 19:12:35;;;;;;;2.10;1.30;;;25.60;32.40;;;;;;20911428;28;20041;-57
2023/08/29 19:22:36;;;;;;;2.33;1.17;;;25.60;32.20;;;;;;20911870;28;20045;-59
2023/08/29 19:32:37;;;;;;;4.57;1.57;;;25.50;32.60;;;;;;20910084;28;20059;-58
2023/08/29 19:42:37;;;;;;;1.50;0.80;;;25.40;32.70;;;;;;20910647;28;20136;-58
2023/08/29 19:52:38;;;;;;;1.40;1.00;;;25.30;32.70;;;;;;20911065;28;20462;-57
2023/08/29 20:02:40;;;;;;;2.83;1.15;;;25.10;33.00;;;;;;20909006;28;20045;-58
2023/08/29 20:12:40;;;;;;;2.70;1.33;;;25.10;32.80;;;;;;20922077;28;20049;-59
2023/08/29 20:22:43;;;;;;;2.42;1.10;;;25.10;33.00;;;;;;20924689;28;20045;-57
2023/08/29 20:32:43;;;;;;;1.90;1.13;;;24.90;33.40;;;;;;20923265;28;20502;-60
2023/08/29 20:42:44;;;;;;;1.83;1.20;;;24.80;33.50;;;;;;20922118;28;20053;-60
2023/08/29 20:52:45;;;;;;;2.67;1.20;;;24.80;33.40;;;;;;20921213;28;20487;-58
2023/08/29 21:02:46;;;;;;;3.43;1.30;;;24.70;33.60;;;;;;20921509;28;20048;-59
2023/08/29 21:12:47;;;;;;;3.85;1.10;;;24.60;33.80;;;;;;20921170;28;20367;-60
2023/08/29 21:22:48;;;;;;;3.42;1.73;;;24.50;34.00;;;;;;20918396;28;20056;-59
2023/08/29 21:32:49;;;;;;;2.85;1.30;;;24.40;33.90;;;;;;20918158;28;20052;-59
2023/08/29 21:42:49;;;;;;;3.95;1.08;;;24.30;34.10;;;;;;20918565;28;20508;-58
2023/08/29 21:52:50;;;;;;;2.17;0.80;;;24.30;34.30;;;;;;20917509;28;20045;-58
2023/08/29 22:02:54;;;;;;;2.97;1.13;;;24.10;35.00;;;;;;20917339;28;20076;-59
2023/08/29 22:12:55;;;;;;;3.25;1.00;;;24.00;35.60;;;;;;20916503;28;20042;-59
2023/08/29 22:22:56;;;;;;;1.92;0.90;;;23.90;36.10;;;;;;20915943;28;20394;-56
2023/08/29 22:32:56;;;;;;;2.70;1.00;;;23.80;36.40;;;;;;20914527;28;20061;-57
2023/08/29 22:42:57;;;;;;;2.42;1.00;;;23.70;36.80;;;;;;20914666;28;20095;-58
2023/08/29 22:52:58;;;;;;;1.83;1.02;;;23.60;37.20;;;;;;20914014;28;20048;-58
2023/08/29 23:02:59;;;;;;;2.50;1.08;;;23.60;37.40;;;;;;20913747;28;20041;-58
2023/08/29 23:13:00;;;;;;;1.52;0.77;;;23.50;37.50;;;;;;20912044;28;20045;-56
2023/08/29 23:23:01;;;;;;;2.28;1.08;;;23.50;37.70;;;;;;20913058;28;20485;-57
2023/08/29 23:33:01;;;;;;;2.22;1.27;;;23.40;37.70;;;;;;20911615;28;20061;-57
2023/08/29 23:43:06;;;;;;;2.83;1.42;;;23.20;37.80;;;;;;20917726;28;20049;-57
2023/08/29 23:53:07;;;;;;;4.38;1.10;;;23.10;37.80;;;;;;20927519;28;20041;-58
